Time;durP1;ratioP1;P1;durP2;ratioP2;P2;SDS_P1;SDS_P2;PMS_P1;PMS_P2;Temp;Humidity;BMP_temperature;BMP_pressure;BME280_temperature;BME280_humidity;BME280_pressure;Samples;Min_cycle;Max_cycle;Signal;HPM_P1;HPM_P2
2023/02/01 00:11:28;;;;;;;10.70;2.83;;;3.10;99.90;;;;;;5835142;23;20373;-78
2023/02/01 01:09:10;;;;;;;3.60;0.65;;;3.40;99.90;;;;;;3916300;23;20285;-80
2023/02/01 01:33:14;;;;;;;4.05;0.60;;;3.50;99.90;;;;;;5550732;23;20036;31
2023/02/01 01:46:35;;;;;;;9.13;3.10;;;3.20;99.90;;;;;;5745514;23;21018;-79
2023/02/01 03:20:29;;;;;;;3.10;0.60;;;2.30;99.90;;;;;;4851756;29;20069;-80
2023/02/01 03:26:54;;;;;;;3.28;0.70;;;2.30;99.90;;;;;;4853529;29;20054;-79
2023/02/01 03:33:11;;;;;;;1.33;0.60;;;2.30;99.90;;;;;;5912622;23;20040;31
2023/02/01 03:35:56;;;;;;;3.03;0.70;;;2.20;99.90;;;;;;4828541;29;20059;-80
2023/02/01 03:55:59;;;;;;;4.78;1.25;;;2.10;99.90;;;;;;4892245;23;20052;-78
2023/02/01 03:58:27;;;;;;;3.70;1.70;;;2.20;99.90;;;;;;4824763;29;20078;-79
2023/02/01 04:28:15;;;;;;;11.68;7.10;;;2.00;99.90;;;;;;4811453;29;20051;-78
2023/02/01 04:30:46;;;;;;;9.18;5.85;;;2.10;99.90;;;;;;4811553;29;20539;-79
2023/02/01 04:36:45;;;;;;;6.95;3.58;;;2.10;99.90;;;;;;4901225;23;20065;-79
2023/02/01 04:39:13;;;;;;;7.07;3.63;;;2.10;99.90;;;;;;4812674;29;20572;-79
2023/02/01 04:41:41;;;;;;;7.43;3.22;;;2.30;99.90;;;;;;4797736;29;20061;-79
2023/02/01 04:46:49;;;;;;;5.05;2.35;;;2.40;99.90;;;;;;4799106;29;20075;-79
2023/02/01 04:49:19;;;;;;;7.75;3.40;;;2.50;99.90;;;;;;4779946;29;20059;-79
2023/02/01 04:54:44;;;;;;;7.22;5.05;;;2.40;99.90;;;;;;4834329;29;20061;-80
2023/02/01 05:04:24;;;;;;;5.20;2.83;;;2.60;99.90;;;;;;5728500;23;20055;31
2023/02/01 05:06:54;;;;;;;6.00;2.50;;;2.50;99.90;;;;;;4798646;29;20047;-80
2023/02/01 05:15:28;;;;;;;5.20;2.78;;;2.50;99.90;;;;;;4798542;29;20039;-79
2023/02/01 05:18:20;;;;;;;4.63;2.13;;;2.40;99.90;;;;;;4898746;23;20047;31
2023/02/01 05:21:22;;;;;;;5.30;1.95;;;2.40;99.90;;;;;;5122971;24;20024;31
2023/02/01 05:26:51;;;;;;;6.40;3.22;;;2.60;99.90;;;;;;4812497;29;20050;-79
2023/02/01 05:29:24;;;;;;;3.42;1.90;;;3.00;99.90;;;;;;4817693;29;20057;-79
2023/02/01 05:31:59;;;;;;;2.08;0.95;;;3.40;99.90;;;;;;4808125;29;20068;-79
2023/02/01 05:34:51;;;;;;;4.70;1.90;;;3.30;99.90;;;;;;4823114;29;20052;-79
2023/02/01 05:41:00;;;;;;;6.35;2.20;;;3.40;99.90;;;;;;5591767;23;20068;-78
2023/02/01 05:44:22;;;;;;;4.03;1.00;;;3.50;99.90;;;;;;5237779;24;20025;31
2023/02/01 06:22:57;;;;;;;10.30;4.65;;;3.20;99.90;;;;;;5941362;23;20229;31
2023/02/01 06:33:14;;;;;;;6.90;2.93;;;3.40;99.90;;;;;;5621026;23;20945;31
2023/02/01 06:39:46;;;;;;;14.10;6.18;;;3.70;99.90;;;;;;5944352;23;20052;31
2023/02/01 06:56:55;;;;;;;28.10;9.80;;;3.80;99.90;;;;;;5153594;24;20025;31
2023/02/01 07:00:20;;;;;;;30.30;9.02;;;3.30;99.90;;;;;;5598242;24;21075;31
2023/02/01 07:02:52;;;;;;;24.35;8.93;;;4.10;99.90;;;;;;4796222;29;20050;-80
2023/02/01 07:05:22;;;;;;;15.02;6.32;;;4.10;99.90;;;;;;4824267;29;20529;-80
2023/02/01 07:07:50;;;;;;;11.93;4.88;;;4.20;99.90;;;;;;4823241;29;20059;-80
2023/02/01 07:10:17;;;;;;;10.45;3.60;;;4.30;99.90;;;;;;4804020;29;20141;-80
2023/02/01 07:12:44;;;;;;;7.40;2.60;;;4.40;99.90;;;;;;4797996;29;20050;-80
2023/02/01 07:15:11;;;;;;;8.07;2.70;;;4.40;99.90;;;;;;4814078;29;20062;-80
2023/02/01 07:17:38;;;;;;;4.75;1.85;;;4.40;99.90;;;;;;4819564;29;20045;-80
2023/02/01 07:20:11;;;;;;;5.93;1.85;;;4.40;99.90;;;;;;4831908;29;20083;-79
2023/02/01 07:22:38;;;;;;;4.68;2.10;;;4.40;99.90;;;;;;4828306;29;20061;-80
2023/02/01 07:25:06;;;;;;;5.43;2.63;;;4.60;99.90;;;;;;4826644;29;20054;-79
2023/02/01 07:27:34;;;;;;;5.18;2.30;;;4.80;99.60;;;;;;4822965;29;20054;-80
2023/02/01 07:30:03;;;;;;;7.65;3.40;;;4.80;99.10;;;;;;4809641;29;20042;-80
2023/02/01 07:32:30;;;;;;;8.65;3.35;;;4.70;99.60;;;;;;4801354;29;20053;-80
2023/02/01 07:34:59;;;;;;;8.35;4.13;;;4.70;99.80;;;;;;4818560;29;20050;-80
2023/02/01 07:37:26;;;;;;;5.75;2.00;;;4.80;99.80;;;;;;4825169;29;20051;-80
2023/02/01 07:39:53;;;;;;;5.05;2.55;;;5.00;99.10;;;;;;4821834;29;20054;-80
2023/02/01 07:42:21;;;;;;;4.95;3.72;;;5.00;99.10;;;;;;4822154;29;20043;-79
2023/02/01 07:44:49;;;;;;;6.43;3.05;;;5.10;98.70;;;;;;4812084;29;20045;-80
2023/02/01 07:47:17;;;;;;;4.15;1.00;;;5.20;98.20;;;;;;4808943;29;20072;-80
2023/02/01 07:49:45;;;;;;;2.55;0.95;;;5.30;97.60;;;;;;4806798;29;20066;-79
2023/02/01 07:52:15;;;;;;;2.33;0.73;;;5.40;96.90;;;;;;4804982;29;20054;-79
2023/02/01 07:54:43;;;;;;;4.07;2.10;;;5.10;96.20;;;;;;4806106;29;20057;-80
2023/02/01 07:57:11;;;;;;;4.40;0.90;;;5.40;96.40;;;;;;4790961;29;20039;-79
2023/02/01 08:01:19;;;;;;;4.22;1.52;;;5.50;95.90;;;;;;4822719;29;20046;-79
2023/02/01 08:02:27;;;;;;;3.70;1.45;;;5.50;95.80;;;;;;4805057;29;20070;-80
2023/02/01 08:04:56;;;;;;;2.55;1.48;;;5.60;95.40;;;;;;4824644;29;20046;-78
2023/02/01 08:07:27;;;;;;;3.70;1.15;;;5.60;95.30;;;;;;4824970;29;20049;-79
2023/02/01 08:09:55;;;;;;;2.33;1.13;;;5.70;94.90;;;;;;4804151;29;20057;-80
2023/02/01 08:12:22;;;;;;;6.35;2.47;;;5.80;95.00;;;;;;4819552;29;20051;-79
2023/02/01 08:14:51;;;;;;;2.95;1.60;;;5.80;94.80;;;;;;4798845;29;20110;-80
2023/02/01 08:17:18;;;;;;;4.75;1.52;;;5.80;94.70;;;;;;4786909;29;20043;-80
2023/02/01 08:19:45;;;;;;;2.72;1.20;;;5.90;95.00;;;;;;4804127;29;20499;-79
2023/02/01 08:22:12;;;;;;;1.98;0.98;;;5.90;94.20;;;;;;4818763;29;20043;-79
2023/02/01 08:24:40;;;;;;;4.85;1.60;;;6.00;94.10;;;;;;4804279;29;20088;-80
2023/02/01 08:27:08;;;;;;;3.33;1.33;;;5.90;94.60;;;;;;4798749;29;20133;-80
2023/02/01 08:29:35;;;;;;;4.75;2.58;;;5.80;94.50;;;;;;4793066;29;20030;-80
2023/02/01 08:32:04;;;;;;;3.38;1.50;;;5.80;94.60;;;;;;4803364;29;20046;-80
2023/02/01 08:34:31;;;;;;;5.90;2.60;;;5.70;94.50;;;;;;4803832;29;20049;-80
2023/02/01 08:37:01;;;;;;;8.55;3.80;;;5.60;95.60;;;;;;4816105;29;20058;-79
2023/02/01 08:39:28;;;;;;;3.85;2.15;;;5.50;96.30;;;;;;4819904;29;20049;-79
2023/02/01 08:44:44;;;;;;;4.53;2.25;;;5.40;96.60;;;;;;4818045;29;20464;-79
2023/02/01 08:47:17;;;;;;;13.27;5.57;;;5.50;96.40;;;;;;4808213;29;20049;-79
2023/02/01 08:49:47;;;;;;;7.50;2.90;;;5.40;96.80;;;;;;4805903;29;20046;-80
2023/02/01 08:52:14;;;;;;;9.70;3.42;;;5.50;96.80;;;;;;4824165;29;20133;-80
2023/02/01 08:54:43;;;;;;;4.95;2.53;;;5.50;96.70;;;;;;4808682;29;20487;-80
2023/02/01 08:57:11;;;;;;;5.47;2.53;;;5.60;96.10;;;;;;4807137;29;20508;-80
2023/02/01 08:59:39;;;;;;;2.60;1.08;;;5.60;96.30;;;;;;4812780;29;20050;-78
2023/02/01 09:02:14;;;;;;;4.72;1.40;;;5.60;95.90;;;;;;4810891;29;20075;-77
2023/02/01 09:04:41;;;;;;;4.90;2.25;;;5.60;95.30;;;;;;4785514;29;20086;-79
2023/02/01 09:07:12;;;;;;;5.25;1.15;;;5.70;95.50;;;;;;4800349;29;20054;-79
2023/02/01 09:09:41;;;;;;;5.85;2.13;;;5.60;95.70;;;;;;4788119;29;20060;-79
2023/02/01 09:12:08;;;;;;;7.45;3.60;;;5.70;95.40;;;;;;4787374;29;20403;-79
2023/02/01 09:14:35;;;;;;;6.55;2.72;;;5.70;95.50;;;;;;4774956;29;20128;-79
2023/02/01 09:17:05;;;;;;;5.88;2.10;;;5.60;96.00;;;;;;4790539;29;20044;-79
2023/02/01 09:19:34;;;;;;;4.73;2.20;;;5.50;96.10;;;;;;4787229;29;20056;-79
2023/02/01 09:22:01;;;;;;;5.93;2.20;;;5.50;96.30;;;;;;4790413;29;20058;-78
2023/02/01 09:24:29;;;;;;;2.42;1.50;;;5.60;95.50;;;;;;4774447;29;20757;-78
2023/02/01 09:26:56;;;;;;;2.50;1.38;;;5.70;95.50;;;;;;4769639;30;20052;-78
2023/02/01 09:29:24;;;;;;;7.10;1.90;;;5.80;95.10;;;;;;4789915;29;20105;-79
2023/02/01 09:31:51;;;;;;;3.17;1.85;;;6.10;94.50;;;;;;4788653;29;20052;-79
2023/02/01 09:34:30;;;;;;;5.53;1.48;;;6.10;94.20;;;;;;4790604;29;20136;-79
2023/02/01 09:36:57;;;;;;;2.83;1.10;;;6.20;94.00;;;;;;4780310;30;20051;-79
2023/02/01 09:39:29;;;;;;;3.25;1.50;;;6.10;94.00;;;;;;4773260;29;20051;-79
2023/02/01 09:42:33;;;;;;;5.55;1.90;;;6.00;94.10;;;;;;4803447;29;20042;-79
2023/02/01 09:45:16;;;;;;;6.40;1.98;;;6.00;94.50;;;;;;4786896;29;20063;-79
2023/02/01 09:47:51;;;;;;;2.78;1.42;;;5.90;94.50;;;;;;4784563;29;20076;-79
2023/02/01 09:50:34;;;;;;;7.22;2.42;;;5.90;94.40;;;;;;4913387;24;20118;-79
2023/02/01 09:53:40;;;;;;;3.85;1.38;;;5.90;94.80;;;;;;4800790;29;20051;-79
2023/02/01 09:56:52;;;;;;;5.30;2.03;;;6.10;94.40;;;;;;4835545;29;20090;-78
2023/02/01 10:00:07;;;;;;;6.45;2.25;;;6.00;94.70;;;;;;4993832;24;20091;-78
2023/02/01 10:02:40;;;;;;;3.92;1.50;;;6.00;95.00;;;;;;4770515;29;20060;-78
2023/02/01 10:05:49;;;;;;;5.60;2.50;;;6.00;94.60;;;;;;4798756;29;20043;-79
2023/02/01 10:08:31;;;;;;;5.13;2.67;;;6.10;94.60;;;;;;4962197;24;20084;-78
2023/02/01 10:12:00;;;;;;;4.80;1.83;;;6.10;95.00;;;;;;4802712;29;20534;-78
2023/02/01 10:18:24;;;;;;;7.05;2.20;;;6.10;94.90;;;;;;4966319;24;20054;-78
2023/02/01 10:21:27;;;;;;;6.55;2.47;;;6.30;95.00;;;;;;4832519;29;20051;-78
2023/02/01 10:24:12;;;;;;;7.85;3.55;;;6.70;94.40;;;;;;4796825;29;20053;-78
2023/02/01 10:27:25;;;;;;;5.93;2.53;;;6.90;93.90;;;;;;4827532;29;20115;-78
2023/02/01 10:29:59;;;;;;;5.43;2.78;;;6.80;93.50;;;;;;4762636;30;20148;-78
2023/02/01 10:32:34;;;;;;;4.40;2.05;;;6.80;93.60;;;;;;4829026;23;20058;-78
2023/02/01 10:35:24;;;;;;;10.63;4.38;;;6.70;94.00;;;;;;4961615;24;21010;-79
2023/02/01 10:37:53;;;;;;;5.95;2.67;;;6.70;94.40;;;;;;4818783;29;20129;-78
2023/02/01 10:40:45;;;;;;;8.32;2.40;;;6.60;94.30;;;;;;5312402;24;20118;-78
2023/02/01 10:43:14;;;;;;;6.40;2.83;;;6.50;94.90;;;;;;4761566;29;20110;-77
2023/02/01 10:45:42;;;;;;;5.47;2.30;;;6.50;95.30;;;;;;4750793;29;20040;-78
2023/02/01 10:48:09;;;;;;;15.50;5.28;;;6.60;95.40;;;;;;4750776;30;20052;-78
2023/02/01 10:50:59;;;;;;;6.93;2.90;;;6.70;95.00;;;;;;4770878;30;20096;-78
2023/02/01 10:53:37;;;;;;;4.82;2.22;;;6.80;95.00;;;;;;4753005;30;20115;-77
2023/02/01 10:56:31;;;;;;;4.78;2.35;;;6.90;94.70;;;;;;4759557;30;20099;-78
2023/02/01 10:59:13;;;;;;;;;;;6.90;94.70;;;;;;4860403;24;20055;-78
2023/02/01 11:01:45;;;;;;;5.57;3.17;;;7.10;94.80;;;;;;4889070;24;20565;-77
2023/02/01 11:04:34;;;;;;;5.60;2.33;;;7.30;94.40;;;;;;4925116;24;20290;-78
2023/02/01 11:07:28;;;;;;;4.38;2.13;;;7.10;94.40;;;;;;4842327;24;20039;-78
2023/02/01 11:09:57;;;;;;;7.00;3.15;;;6.90;94.70;;;;;;4857370;24;20049;-78
2023/02/01 11:12:38;;;;;;;8.10;3.95;;;6.80;94.70;;;;;;4835996;29;20411;-78
2023/02/01 11:18:07;;;;;;;31.48;8.13;;;6.70;95.20;;;;;;4867697;23;20054;-79
2023/02/01 11:20:42;;;;;;;34.13;9.70;;;6.60;95.30;;;;;;4931189;24;20028;-78
2023/02/01 11:23:42;;;;;;;3.40;1.77;;;6.70;95.40;;;;;;4970820;24;20046;-78
2023/02/01 11:26:24;;;;;;;7.22;3.60;;;6.80;95.20;;;;;;4757202;30;20047;-78
2023/02/01 11:29:24;;;;;;;4.00;1.60;;;7.00;94.60;;;;;;4770112;30;20047;-78
2023/02/01 11:31:59;;;;;;;3.92;2.50;;;7.10;94.70;;;;;;5169017;24;20265;-78
2023/02/01 11:34:43;;;;;;;5.47;3.00;;;7.20;94.60;;;;;;4803537;29;20067;-77
2023/02/01 11:39:57;;;;;;;6.35;2.40;;;7.40;95.30;;;;;;5260838;23;20057;-78
2023/02/01 11:42:52;;;;;;;5.10;2.30;;;7.40;94.70;;;;;;5346151;23;20036;-79
2023/02/01 11:45:26;;;;;;;5.70;2.70;;;7.20;94.40;;;;;;5087493;24;20808;-79
2023/02/01 11:48:27;;;;;;;4.55;2.10;;;7.40;94.50;;;;;;4909630;24;20039;-79
2023/02/01 11:51:23;;;;;;;4.03;1.65;;;7.10;94.30;;;;;;5002828;24;20055;-78
2023/02/01 11:54:41;;;;;;;2.78;1.85;;;7.10;95.30;;;;;;4836185;29;20054;-78
2023/02/01 11:57:57;;;;;;;4.03;2.15;;;7.20;96.10;;;;;;4821164;29;20114;-78
2023/02/01 12:00:57;;;;;;;3.28;1.90;;;6.70;97.30;;;;;;4944934;24;20062;-78
2023/02/01 12:06:54;;;;;;;4.28;1.85;;;6.50;99.90;;;;;;4982453;23;20034;-79
2023/02/01 12:20:56;;;;;;;3.72;1.70;;;6.40;99.90;;;;;;5297800;23;20034;31
2023/02/01 12:23:58;;;;;;;4.68;2.20;;;6.40;99.90;;;;;;5008571;24;20055;-78
2023/02/01 12:26:40;;;;;;;11.60;5.43;;;6.20;99.90;;;;;;4820263;29;20055;-77
2023/02/01 12:29:48;;;;;;;5.95;2.00;;;6.10;99.90;;;;;;4837686;29;20052;-78
2023/02/01 12:32:53;;;;;;;8.50;3.88;;;6.00;99.90;;;;;;4825107;29;20098;-78
2023/02/01 12:35:34;;;;;;;4.80;2.42;;;5.80;99.90;;;;;;4819920;29;20102;-78
2023/02/01 12:38:48;;;;;;;5.82;2.50;;;5.60;99.90;;;;;;4797020;29;20564;-78
2023/02/01 12:41:36;;;;;;;9.48;4.18;;;5.50;99.90;;;;;;4798582;29;20059;-78
2023/02/01 12:44:14;;;;;;;11.35;5.03;;;5.40;99.90;;;;;;4809571;29;20042;-78
2023/02/01 12:46:52;;;;;;;5.20;2.45;;;5.40;99.90;;;;;;4820645;29;20119;-78
2023/02/01 12:49:33;;;;;;;9.57;5.03;;;5.10;99.90;;;;;;4785324;29;20031;-78
2023/02/01 12:52:13;;;;;;;4.28;2.17;;;5.00;99.90;;;;;;4800412;29;20503;-77
2023/02/01 12:55:07;;;;;;;6.32;2.92;;;4.90;99.90;;;;;;4802101;29;20083;-78
2023/02/01 12:57:52;;;;;;;4.85;2.53;;;4.90;99.90;;;;;;4805263;29;20039;-78
2023/02/01 13:00:50;;;;;;;5.10;3.13;;;5.00;99.90;;;;;;4811540;29;20103;-78
2023/02/01 13:03:29;;;;;;;4.60;2.53;;;4.60;99.90;;;;;;4805784;29;20047;-78
2023/02/01 13:06:06;;;;;;;5.60;3.15;;;4.70;99.90;;;;;;4797798;29;20174;-78
2023/02/01 13:08:58;;;;;;;9.55;4.53;;;4.70;99.90;;;;;;4806182;29;20074;-78
2023/02/01 13:11:33;;;;;;;5.40;2.25;;;4.60;99.90;;;;;;4793649;29;20392;-78
2023/02/01 13:14:13;;;;;;;5.38;2.63;;;4.70;99.90;;;;;;4795579;29;20143;-78
2023/02/01 13:16:50;;;;;;;8.77;4.60;;;4.80;99.90;;;;;;4787459;29;20813;-78
2023/02/01 13:19:43;;;;;;;84.97;26.48;;;4.90;99.90;;;;;;4790494;29;20061;-78
2023/02/01 13:22:25;;;;;;;5.83;3.40;;;5.00;99.90;;;;;;4792135;29;20047;-78
2023/02/01 13:24:55;;;;;;;7.53;4.50;;;5.00;99.90;;;;;;4780508;29;20066;-78
2023/02/01 13:27:26;;;;;;;13.70;10.43;;;5.00;99.90;;;;;;4776010;29;20055;-77
2023/02/01 13:30:05;;;;;;;28.23;17.95;;;5.00;99.90;;;;;;4791633;29;20055;-78
2023/02/01 13:32:54;;;;;;;21.75;11.15;;;5.00;99.90;;;;;;4778373;29;20069;-77
2023/02/01 13:36:15;;;;;;;25.52;12.27;;;5.00;99.90;;;;;;4780203;29;20456;-79
2023/02/01 13:39:23;;;;;;;18.58;9.25;;;4.90;99.90;;;;;;4793290;29;20391;-79
2023/02/01 13:41:59;;;;;;;28.88;19.08;;;4.90;99.90;;;;;;4757796;29;20503;-79
2023/02/01 13:44:32;;;;;;;17.88;12.18;;;4.90;99.90;;;;;;4779510;29;20066;-78
2023/02/01 13:47:03;;;;;;;9.75;5.60;;;5.00;99.90;;;;;;4791941;29;20074;-78
2023/02/01 13:49:37;;;;;;;8.77;4.07;;;5.00;99.90;;;;;;4794340;29;20540;-78
2023/02/01 13:52:05;;;;;;;8.05;3.95;;;5.00;99.90;;;;;;4797571;29;20059;-78
2023/02/01 13:54:38;;;;;;;6.40;3.67;;;4.90;99.90;;;;;;4788855;29;20068;-79
2023/02/01 13:57:37;;;;;;;15.77;8.70;;;4.90;99.90;;;;;;4796184;29;20594;-78
2023/02/01 14:00:30;;;;;;;18.38;7.75;;;4.90;99.90;;;;;;4796574;29;20050;-78
2023/02/01 14:03:00;;;;;;;38.97;17.33;;;4.90;99.90;;;;;;4783481;29;20501;-79
2023/02/01 14:05:31;;;;;;;12.00;6.03;;;4.80;99.90;;;;;;4795982;29;20449;-79
2023/02/01 14:08:04;;;;;;;4.22;1.65;;;4.80;99.90;;;;;;4787670;29;20070;-79
2023/02/01 14:10:58;;;;;;;17.27;9.05;;;4.80;99.90;;;;;;4801010;29;20653;-79
2023/02/01 14:13:29;;;;;;;10.23;4.93;;;4.80;99.90;;;;;;4788960;29;20047;-79
2023/02/01 14:16:06;;;;;;;7.65;3.30;;;4.80;99.90;;;;;;4788192;29;20057;-79
2023/02/01 14:18:36;;;;;;;15.40;7.10;;;4.90;99.90;;;;;;4796457;29;20119;-79
2023/02/01 14:21:33;;;;;;;7.38;3.92;;;4.90;99.90;;;;;;4795484;29;20155;-79
2023/02/01 14:24:13;;;;;;;11.63;5.78;;;4.90;99.90;;;;;;4780637;29;20082;-79
2023/02/01 14:26:47;;;;;;;5.93;2.85;;;4.80;99.90;;;;;;4786640;29;20062;-79
2023/02/01 14:29:17;;;;;;;16.35;7.35;;;4.80;99.90;;;;;;4793441;29;20107;-78
2023/02/01 14:31:54;;;;;;;11.13;4.40;;;4.70;99.90;;;;;;4791694;29;21822;-78
2023/02/01 14:34:44;;;;;;;10.40;4.57;;;4.80;99.90;;;;;;4795472;29;20046;-78
2023/02/01 14:37:28;;;;;;;13.48;4.57;;;4.80;99.90;;;;;;4795337;29;20503;-78
2023/02/01 14:40:02;;;;;;;18.00;7.25;;;4.90;99.90;;;;;;4778242;29;20051;-78
2023/02/01 14:42:41;;;;;;;24.50;9.85;;;4.90;99.90;;;;;;4793721;29;20039;-79
2023/02/01 14:45:21;;;;;;;20.80;8.75;;;4.80;99.90;;;;;;4795563;29;20084;-78
2023/02/01 14:48:15;;;;;;;10.07;4.82;;;4.90;99.90;;;;;;4799181;29;20054;-78
2023/02/01 14:50:46;;;;;;;13.23;5.03;;;4.90;99.90;;;;;;4791765;29;20504;-78
2023/02/01 14:53:16;;;;;;;15.07;7.05;;;4.90;99.90;;;;;;4802203;29;20055;-78
2023/02/01 14:56:02;;;;;;;7.15;3.53;;;5.00;99.90;;;;;;4796898;29;20046;-78
2023/02/01 14:58:38;;;;;;;8.52;4.57;;;5.00;99.90;;;;;;4802552;29;20047;-78
2023/02/01 15:01:15;;;;;;;8.48;3.85;;;5.00;99.90;;;;;;4796426;29;20142;-78
2023/02/01 15:04:01;;;;;;;25.83;10.52;;;5.00;99.90;;;;;;4799849;29;20075;-78
2023/02/01 15:06:47;;;;;;;45.95;16.50;;;5.00;99.90;;;;;;4799986;29;20082;-78
2023/02/01 15:09:45;;;;;;;33.13;13.15;;;5.00;99.90;;;;;;4783064;29;20039;-78
2023/02/01 15:12:12;;;;;;;23.13;9.88;;;5.00;99.90;;;;;;4781938;29;20043;-78
2023/02/01 15:14:42;;;;;;;11.88;5.63;;;5.00;99.90;;;;;;4794476;29;20520;-78
2023/02/01 15:17:25;;;;;;;53.47;20.35;;;4.90;99.90;;;;;;4796600;29;20051;-78
2023/02/01 15:19:57;;;;;;;37.55;16.70;;;4.90;99.90;;;;;;4799347;29;20047;-78
2023/02/01 15:23:16;;;;;;;14.73;7.20;;;4.90;99.90;;;;;;4800469;29;20104;-78
2023/02/01 15:25:46;;;;;;;12.52;7.38;;;5.00;99.90;;;;;;4770068;29;20492;-76
2023/02/01 15:28:15;;;;;;;13.15;6.72;;;4.90;99.90;;;;;;4790852;29;20059;-76
2023/02/01 15:31:05;;;;;;;23.45;12.77;;;5.00;99.90;;;;;;4785281;29;20046;-77
2023/02/01 15:33:32;;;;;;;10.73;6.25;;;4.90;99.90;;;;;;4782304;29;20297;-77
2023/02/01 15:36:05;;;;;;;8.20;4.22;;;4.80;99.90;;;;;;4792707;29;20047;-77
2023/02/01 15:38:44;;;;;;;8.27;3.33;;;4.80;99.90;;;;;;4781491;29;20061;-77
2023/02/01 15:41:18;;;;;;;7.55;3.47;;;4.80;99.90;;;;;;4769846;29;20046;-79
2023/02/01 15:43:54;;;;;;;10.80;4.90;;;4.80;99.90;;;;;;4796917;29;20128;-77
2023/02/01 15:46:33;;;;;;;14.88;6.90;;;4.70;99.90;;;;;;4795505;29;20058;-77
2023/02/01 15:49:00;;;;;;;15.75;8.20;;;4.60;99.90;;;;;;4776407;29;20059;-77
2023/02/01 15:51:32;;;;;;;6.40;3.28;;;4.60;99.90;;;;;;4775593;29;20066;-77
2023/02/01 15:54:07;;;;;;;12.98;5.25;;;4.50;99.90;;;;;;4781130;29;20082;-78
2023/02/01 15:56:38;;;;;;;9.23;4.95;;;4.50;99.90;;;;;;4789866;29;20051;-77
2023/02/01 15:59:14;;;;;;;4.82;2.85;;;4.40;99.90;;;;;;4794313;29;20085;-77
2023/02/01 16:01:41;;;;;;;6.18;2.50;;;5.20;99.90;;;;;;4783801;29;20050;-77
2023/02/01 16:04:24;;;;;;;6.60;2.72;;;3.70;99.90;;;;;;4795774;29;20115;-80
2023/02/01 16:06:55;;;;;;;11.70;6.10;;;4.30;99.90;;;;;;4789338;29;20043;-79
2023/02/01 16:09:27;;;;;;;10.45;5.10;;;4.30;99.90;;;;;;4792001;29;20047;-79
2023/02/01 16:12:00;;;;;;;10.30;3.57;;;4.20;99.90;;;;;;4789003;29;20047;-79
2023/02/01 16:14:28;;;;;;;4.53;1.80;;;4.20;99.90;;;;;;4797013;29;22033;-79
2023/02/01 16:16:59;;;;;;;5.05;2.50;;;4.30;99.90;;;;;;4780241;29;20070;-80
2023/02/01 16:19:31;;;;;;;10.48;3.50;;;4.40;99.90;;;;;;4794633;29;20103;-79
2023/02/01 16:22:00;;;;;;;6.07;2.53;;;4.40;99.90;;;;;;4943835;24;20065;-78
2023/02/01 16:24:33;;;;;;;6.13;2.20;;;4.50;99.90;;;;;;4838707;29;20051;-78
2023/02/01 16:27:08;;;;;;;7.38;3.38;;;4.00;99.90;;;;;;5017343;24;20073;-78
2023/02/01 16:35:49;;;;;;;5.75;1.52;;;4.90;99.90;;;;;;3741154;24;20303;-80
2023/02/01 16:38:26;;;;;;;3.55;0.85;;;5.00;99.90;;;;;;4942552;24;20053;-78
2023/02/01 16:40:54;;;;;;;53.42;19.85;;;4.90;99.90;;;;;;5057466;24;20050;-78
2023/02/01 16:43:24;;;;;;;78.43;29.35;;;4.80;99.90;;;;;;4846026;29;20050;-78
2023/02/01 16:45:59;;;;;;;23.20;15.35;;;5.00;99.90;;;;;;4985864;24;20045;-78
2023/02/01 16:48:37;;;;;;;8.38;4.70;;;4.90;99.90;;;;;;4810292;29;20072;-78
2023/02/01 16:51:10;;;;;;;5.07;2.65;;;4.70;99.90;;;;;;4800728;29;20054;-78
2023/02/01 16:53:39;;;;;;;6.70;2.75;;;4.90;99.90;;;;;;4877284;24;20271;-78
2023/02/01 16:56:29;;;;;;;5.22;1.52;;;4.60;99.90;;;;;;4998551;24;20067;-78
2023/02/01 16:58:58;;;;;;;8.13;5.85;;;4.70;99.90;;;;;;4791595;29;20050;-78
2023/02/01 17:01:27;;;;;;;4.88;2.10;;;4.40;99.90;;;;;;4812539;29;20047;-78
2023/02/01 17:03:57;;;;;;;3.28;1.02;;;4.50;99.90;;;;;;4804842;29;20051;-78
2023/02/01 17:06:27;;;;;;;3.25;1.50;;;4.50;99.90;;;;;;4798811;29;20128;-78
2023/02/01 17:09:18;;;;;;;4.13;2.28;;;4.50;99.90;;;;;;4783053;30;20122;-78
2023/02/01 17:11:46;;;;;;;10.02;5.20;;;4.50;99.90;;;;;;4765946;29;20047;-79
2023/02/01 17:14:24;;;;;;;8.00;4.95;;;4.50;99.90;;;;;;4895143;24;20038;-78
2023/02/01 17:17:33;;;;;;;9.90;4.20;;;4.40;99.90;;;;;;995411;24;21718;31
2023/02/01 17:20:32;;;;;;;13.32;6.57;;;2.70;99.90;;;;;;4904617;24;20128;-78
2023/02/01 17:23:29;;;;;;;20.60;10.82;;;4.20;99.90;;;;;;5245827;24;20045;-79
2023/02/01 17:26:04;;;;;;;17.97;9.63;;;3.20;99.90;;;;;;4993510;24;20062;31
2023/02/01 17:28:49;;;;;;;11.98;7.45;;;4.20;99.90;;;;;;4984765;24;20498;31
2023/02/01 17:31:26;;;;;;;21.33;10.63;;;4.30;99.90;;;;;;4834552;29;20058;-78
2023/02/01 17:33:57;;;;;;;25.63;13.70;;;4.30;99.90;;;;;;4856833;24;20055;-78
2023/02/01 17:36:26;;;;;;;26.73;11.27;;;4.20;99.90;;;;;;4795461;29;20472;-78
2023/02/01 17:39:09;;;;;;;32.45;16.85;;;4.40;99.90;;;;;;5000413;24;20025;-78
2023/02/01 17:41:43;;;;;;;47.65;22.20;;;3.80;99.90;;;;;;4992444;24;20058;-80
2023/02/01 17:44:14;;;;;;;92.45;39.80;;;4.10;99.90;;;;;;4823826;29;20229;-78
2023/02/01 17:46:46;;;;;;;55.33;29.77;;;3.90;99.90;;;;;;4819327;29;20042;-78
2023/02/01 17:49:17;;;;;;;52.15;26.65;;;3.90;99.90;;;;;;4821467;29;20019;-78
2023/02/01 17:51:50;;;;;;;43.08;32.53;;;3.90;99.90;;;;;;5093300;24;20303;-78
2023/02/01 17:54:20;;;;;;;39.28;20.55;;;4.00;99.90;;;;;;5170091;24;20084;-79
2023/02/01 17:56:48;;;;;;;25.95;13.57;;;3.80;99.90;;;;;;4910571;24;20078;-78
2023/02/01 17:59:17;;;;;;;63.03;29.05;;;3.70;99.90;;;;;;4822517;29;20030;-78
2023/02/01 18:02:22;;;;;;;49.90;22.20;;;3.20;99.90;;;;;;5359408;24;21147;31
2023/02/01 18:04:57;;;;;;;23.48;11.10;;;3.70;99.90;;;;;;4824081;29;20087;-78
2023/02/01 18:07:31;;;;;;;31.27;16.73;;;3.80;99.90;;;;;;5227799;23;20034;-80
2023/02/01 18:11:04;;;;;;;37.63;16.38;;;3.70;99.90;;;;;;4962565;24;20026;31
2023/02/01 18:13:45;;;;;;;40.77;19.07;;;3.80;99.90;;;;;;4993419;24;20248;31
2023/02/01 18:16:53;;;;;;;12.98;6.63;;;3.70;99.90;;;;;;4756050;29;20066;-79
2023/02/01 18:23:20;;;;;;;22.60;11.27;;;3.80;99.90;;;;;;4869087;24;20050;31
2023/02/01 18:26:11;;;;;;;17.70;8.05;;;4.20;99.90;;;;;;4789638;29;19930;-78
2023/02/01 18:29:12;;;;;;;45.83;17.48;;;4.10;99.90;;;;;;4854654;24;20134;-79
2023/02/01 18:35:28;;;;;;;21.05;8.80;;;4.10;99.90;;;;;;4826683;29;20043;-78
2023/02/01 18:38:14;;;;;;;6.85;4.00;;;4.10;99.90;;;;;;5045567;24;20090;-78
2023/02/01 18:41:20;;;;;;;5.53;2.90;;;4.10;99.90;;;;;;4831903;29;20038;-78
2023/02/01 18:44:05;;;;;;;4.18;1.98;;;4.20;99.90;;;;;;4805587;29;20068;-78
2023/02/01 18:46:50;;;;;;;14.70;5.10;;;3.80;99.90;;;;;;4785810;29;20043;-79
2023/02/01 18:49:24;;;;;;;20.90;7.28;;;4.50;99.90;;;;;;4817745;24;20055;-78
2023/02/01 18:58:45;;;;;;;14.25;3.60;;;4.20;99.90;;;;;;5344425;24;20058;-78
2023/02/01 20:03:43;;;;;;;59.70;32.65;;;3.60;99.90;;;;;;5880058;24;20124;31
2023/02/01 20:17:01;;;;;;;32.72;15.35;;;3.30;99.90;;;;;;4990641;24;20052;-80
2023/02/01 20:23:27;;;;;;;31.55;10.82;;;3.30;99.90;;;;;;1836930;23;20392;-80
2023/02/01 20:26:26;;;;;;;21.15;8.80;;;3.50;99.90;;;;;;5018188;24;20657;31
2023/02/01 20:28:55;;;;;;;9.20;2.85;;;3.60;99.90;;;;;;4807476;29;20083;-78
2023/02/01 20:31:27;;;;;;;56.75;17.00;;;3.80;99.90;;;;;;4780711;29;20122;-79
2023/02/01 20:33:58;;;;;;;90.20;23.90;;;3.80;99.90;;;;;;4815157;29;20046;-80
2023/02/01 20:36:28;;;;;;;125.65;28.42;;;4.00;99.90;;;;;;4793145;29;20086;-79
2023/02/01 20:38:56;;;;;;;50.47;13.27;;;4.00;99.90;;;;;;4806291;29;20072;-79
2023/02/01 20:41:25;;;;;;;14.65;4.75;;;4.00;99.90;;;;;;4803280;29;20050;-80
2023/02/01 20:43:54;;;;;;;10.30;3.13;;;4.00;99.90;;;;;;4822027;29;20101;-78
2023/02/01 20:46:24;;;;;;;4.05;2.38;;;4.10;99.90;;;;;;4809233;29;20058;-80
2023/02/01 20:48:56;;;;;;;42.35;10.43;;;4.20;99.90;;;;;;4810420;29;20815;-78
2023/02/01 20:51:24;;;;;;;13.88;4.10;;;4.30;99.90;;;;;;4821786;29;20062;-78
2023/02/01 20:53:54;;;;;;;49.33;12.45;;;4.20;99.90;;;;;;4795213;29;20137;-79
2023/02/01 20:56:21;;;;;;;12.80;4.25;;;4.30;99.90;;;;;;4816903;29;20031;-80
2023/02/01 20:59:01;;;;;;;5.07;1.42;;;4.50;99.90;;;;;;4821691;29;20059;-81
2023/02/01 21:01:34;;;;;;;81.93;21.02;;;4.40;99.90;;;;;;4809489;29;20531;-78
2023/02/01 21:04:03;;;;;;;14.90;5.90;;;4.50;99.90;;;;;;4812766;29;20055;-79
2023/02/01 21:06:31;;;;;;;19.92;6.05;;;4.50;99.90;;;;;;4792755;29;20070;-78
2023/02/01 21:09:03;;;;;;;12.48;3.33;;;4.50;99.90;;;;;;4799867;29;20047;-79
2023/02/01 21:11:33;;;;;;;19.30;7.18;;;4.50;99.90;;;;;;4790361;29;20174;-78
2023/02/01 21:14:04;;;;;;;9.40;2.42;;;4.60;99.90;;;;;;4796350;29;20053;-79
2023/02/01 21:16:35;;;;;;;13.07;3.53;;;4.70;99.90;;;;;;4784028;29;20062;-79
2023/02/01 21:19:11;;;;;;;16.33;6.05;;;4.50;99.90;;;;;;4793132;29;20043;-80
2023/02/01 21:21:41;;;;;;;11.30;4.35;;;4.40;99.90;;;;;;4808039;29;20044;-79
2023/02/01 21:24:08;;;;;;;4.90;2.05;;;4.40;99.90;;;;;;4810480;29;20039;-80
2023/02/01 21:26:47;;;;;;;7.00;1.63;;;4.30;99.90;;;;;;4795121;29;20059;-80